CheckWX is a tool to help pilots better visualize weather data.  It is not intended as a substitute for an official pre-flight weather briefing.

05:59:51 UTC

KPAO METAR
Palo Alto Airport of Santa Clara County
Palo Alto, California, USA
Current

7 hours ago

KPAO 132247Z 35014G21KT 10SM SKC 22/14 A2986 RMK LAST
Observed
Jul-13 @ 22:47 UTC
Wind
  • 350° at 14 KTS
  • Gusting to 21 KTS
Visibility
10 SM
Flight Rules
VFR
Cloud Levels
  • Clear skies
Temperature
22°C / 72°F
Dewpoint
14°C / 57°F
Humidity
61%
Altimeter
29.86" Hg
Pressure
1011.22 hPa
Previous

8 hours ago

KPAO 132147Z 35017KT 10SM SKC 22/16 A2986
Observed
Jul-13 @ 21:47 UTC
Wind
  • 350° at 17 KTS
Visibility
10 SM
Flight Rules
VFR
Cloud Levels
  • Clear skies
Temperature
22°C / 72°F
Dewpoint
16°C / 61°F
Humidity
69%
Altimeter
29.86" Hg
Pressure
1011.22 hPa
Previous

9 hours ago

KPAO 132047Z 33017KT 10SM SKC 22/14 A2987
Observed
Jul-13 @ 20:47 UTC
Wind
  • 330° at 17 KTS
Visibility
10 SM
Flight Rules
VFR
Cloud Levels
  • Clear skies
Temperature
22°C / 72°F
Dewpoint
14°C / 57°F
Humidity
61%
Altimeter
29.87" Hg
Pressure
1011.52 hPa